createdAt,value
2018-09-13T00:00:27.958Z,9.77
2018-09-13T00:02:33.320Z,8.33
2018-09-13T00:04:39.095Z,8.93
2018-09-13T00:06:44.488Z,8.90
2018-09-13T00:08:49.868Z,8.63
2018-09-13T00:10:55.969Z,9.33
2018-09-13T00:13:02.605Z,9.50
2018-09-13T00:15:08.582Z,9.60
2018-09-13T00:17:14.113Z,8.07
2018-09-13T00:19:19.411Z,10.60
2018-09-13T00:21:26.382Z,8.87
2018-09-13T00:23:33.087Z,9.07
2018-09-13T00:25:38.571Z,9.40
2018-09-13T00:27:44.073Z,8.30
2018-09-13T00:29:50.089Z,9.57
2018-09-13T00:31:56.575Z,9.10
2018-09-13T00:34:02.270Z,8.87
2018-09-13T00:36:07.570Z,8.10
2018-09-13T00:38:13.611Z,8.67
2018-09-13T00:40:19.027Z,8.43
2018-09-13T00:42:24.610Z,9.00
2018-09-13T00:44:30.280Z,7.73
2018-09-13T00:46:35.634Z,8.37
2018-09-13T00:48:41.317Z,8.70
2018-09-13T00:50:47.406Z,9.57
2018-09-13T00:52:53.368Z,8.60
2018-09-13T00:54:58.781Z,9.33
2018-09-13T00:57:04.312Z,9.57
2018-09-13T00:59:09.738Z,9.60
2018-09-13T01:01:16.181Z,9.70
2018-09-13T01:03:21.262Z,8.27
2018-09-13T01:05:27.341Z,9.20
2018-09-13T01:07:33.747Z,9.13
2018-09-13T01:09:39.767Z,9.20
2018-09-13T01:11:45.280Z,8.90
2018-09-13T01:13:50.691Z,9.40
2018-09-13T01:15:55.999Z,13.80
2018-09-13T01:18:01.882Z,11.43
2018-09-13T01:20:07.465Z,10.00
2018-09-13T01:22:13.182Z,10.27
2018-09-13T01:24:18.628Z,9.80
2018-09-13T01:26:25.037Z,8.83
2018-09-13T01:28:30.446Z,9.17
2018-09-13T01:30:35.816Z,9.40
2018-09-13T01:32:41.740Z,8.80
2018-09-13T01:34:47.736Z,8.27
2018-09-13T01:36:53.395Z,8.93
2018-09-13T01:38:58.503Z,8.40
2018-09-13T01:41:04.358Z,9.23
2018-09-13T01:43:09.424Z,9.40
2018-09-13T01:45:14.946Z,8.67
2018-09-13T01:47:21.003Z,9.47
2018-09-13T01:49:26.319Z,9.20
2018-09-13T01:51:32.136Z,7.57
2018-09-13T01:53:37.629Z,8.60
2018-09-13T01:55:43.172Z,8.30
2018-09-13T01:57:49.992Z,9.23
2018-09-13T01:59:55.709Z,8.10
2018-09-13T02:02:01.065Z,8.33
2018-09-13T02:04:06.692Z,9.40
2018-09-13T02:06:12.925Z,9.20
2018-09-13T02:08:18.280Z,9.50
2018-09-13T02:10:23.372Z,9.17
2018-09-13T02:12:29.096Z,9.23
2018-09-13T02:14:34.697Z,9.17
2018-09-13T02:16:39.765Z,9.37
2018-09-13T02:18:44.891Z,10.40
2018-09-13T02:20:50.083Z,9.77
2018-09-13T02:22:55.166Z,8.07
2018-09-13T02:25:00.351Z,8.80
2018-09-13T02:27:05.604Z,8.77
2018-09-13T02:29:12.423Z,10.03
2018-09-13T02:31:17.829Z,9.00
2018-09-13T02:33:23.209Z,9.20
2018-09-13T02:35:28.883Z,9.60
2018-09-13T02:37:34.645Z,9.20
2018-09-13T02:39:39.946Z,9.43
2018-09-13T02:41:45.717Z,8.33
2018-09-13T02:43:51.088Z,8.70
2018-09-13T02:45:56.470Z,10.60
2018-09-13T02:48:01.970Z,9.37
2018-09-13T02:50:07.464Z,9.07
2018-09-13T02:52:13.292Z,9.37
2018-09-13T02:54:19.502Z,9.60
2018-09-13T02:56:25.126Z,10.10
2018-09-13T02:58:30.606Z,9.00
2018-09-13T03:00:36.071Z,9.33
2018-09-13T03:02:41.382Z,9.20
2018-09-13T03:04:47.059Z,7.87
2018-09-13T03:06:54.158Z,8.70
2018-09-13T03:09:00.106Z,9.27
2018-09-13T03:11:05.350Z,9.20
2018-09-13T03:13:10.796Z,8.53
2018-09-13T03:15:16.453Z,7.40
2018-09-13T03:17:21.796Z,8.73
2018-09-13T03:19:27.351Z,9.00
2018-09-13T03:21:32.910Z,8.47
2018-09-13T03:23:38.382Z,8.37
2018-09-13T03:25:43.493Z,8.37
2018-09-13T03:27:48.654Z,8.60
2018-09-13T03:29:54.114Z,8.30
2018-09-13T03:31:59.065Z,9.37
2018-09-13T03:34:04.178Z,9.20
2018-09-13T03:36:09.203Z,8.00
2018-09-13T03:38:14.485Z,9.20
2018-09-13T03:40:19.887Z,8.30
2018-09-13T03:42:25.012Z,9.63
2018-09-13T03:44:30.922Z,8.80
2018-09-13T03:46:36.191Z,8.17
2018-09-13T03:48:41.690Z,8.63
2018-09-13T03:50:46.950Z,9.00
2018-09-13T03:52:52.372Z,8.67
2018-09-13T03:54:57.819Z,9.53
2018-09-13T03:57:03.375Z,8.73
2018-09-13T03:59:09.212Z,8.80
2018-09-13T04:01:14.710Z,8.90
2018-09-13T04:03:20.521Z,9.10
2018-09-13T04:05:25.794Z,8.30
2018-09-13T04:07:31.341Z,8.00
2018-09-13T04:09:36.642Z,7.70
2018-09-13T04:11:42.172Z,8.27
2018-09-13T04:13:47.665Z,8.63
2018-09-13T04:15:53.077Z,8.73
2018-09-13T04:17:58.391Z,9.73
2018-09-13T04:20:03.549Z,8.70
2018-09-13T04:22:08.681Z,8.40
2018-09-13T04:24:14.012Z,9.80
2018-09-13T04:26:19.563Z,8.37
2018-09-13T04:28:24.826Z,8.13
2018-09-13T04:30:29.914Z,9.00
2018-09-13T04:32:35.284Z,8.43
2018-09-13T04:34:40.694Z,9.00
2018-09-13T04:36:46.453Z,8.20
2018-09-13T04:38:51.826Z,9.13
2018-09-13T04:40:56.940Z,8.50
2018-09-13T04:43:02.135Z,8.03
2018-09-13T04:45:07.620Z,7.70
2018-09-13T04:47:12.981Z,8.43
2018-09-13T04:49:18.321Z,8.80
2018-09-13T04:51:23.704Z,8.93
2018-09-13T04:53:29.516Z,8.00
2018-09-13T04:55:34.652Z,8.70
2018-09-13T04:57:42.153Z,8.50
2018-09-13T04:59:47.691Z,8.27
2018-09-13T05:01:52.976Z,9.07
2018-09-13T05:03:58.025Z,8.17
2018-09-13T05:06:03.445Z,9.03
2018-09-13T05:08:10.098Z,8.20
2018-09-13T05:10:15.449Z,7.87
2018-09-13T05:12:20.659Z,8.10
2018-09-13T05:14:25.866Z,9.20
2018-09-13T05:16:31.360Z,8.13
2018-09-13T05:18:36.807Z,8.10
2018-09-13T05:20:42.065Z,8.93
2018-09-13T05:22:47.112Z,8.80
2018-09-13T05:24:52.857Z,9.03
2018-09-13T05:26:57.939Z,9.90
2018-09-13T05:29:03.137Z,8.67
2018-09-13T05:31:09.779Z,8.53
2018-09-13T05:33:15.119Z,9.07
2018-09-13T05:35:20.481Z,8.77
2018-09-13T05:37:26.039Z,9.30
2018-09-13T05:39:31.709Z,7.90
2018-09-13T05:41:37.069Z,8.10
2018-09-13T05:43:42.166Z,9.07
2018-09-13T05:45:47.329Z,8.77
2018-09-13T05:47:52.433Z,8.30
2018-09-13T05:49:58.322Z,8.30
2018-09-13T05:52:03.710Z,8.17
2018-09-13T05:54:08.888Z,8.80
2018-09-13T05:56:14.339Z,8.30
2018-09-13T05:58:19.683Z,8.30
2018-09-13T06:00:24.872Z,9.07
2018-09-13T06:02:30.864Z,9.27
2018-09-13T06:04:35.741Z,8.70
2018-09-13T06:06:40.932Z,9.43
2018-09-13T06:08:45.823Z,9.13
2018-09-13T06:10:50.882Z,8.57
2018-09-13T06:12:56.037Z,8.53
2018-09-13T06:15:02.407Z,9.10
2018-09-13T06:17:07.913Z,8.27
2018-09-13T06:19:13.150Z,8.53
2018-09-13T06:21:19.106Z,8.10
2018-09-13T06:23:24.399Z,8.63
2018-09-13T06:25:29.505Z,8.43
2018-09-13T06:27:35.105Z,8.57
2018-09-13T06:29:40.531Z,8.87
2018-09-13T06:31:46.077Z,8.70
2018-09-13T06:33:51.511Z,8.60
2018-09-13T06:35:56.999Z,8.00
2018-09-13T06:38:02.242Z,8.37
2018-09-13T06:40:07.574Z,8.90
2018-09-13T06:42:13.031Z,8.80
2018-09-13T06:44:18.477Z,8.90
2018-09-13T06:46:24.072Z,7.63
2018-09-13T06:48:31.626Z,7.50
2018-09-13T06:50:36.756Z,7.43
2018-09-13T06:52:42.357Z,8.53
2018-09-13T06:54:47.763Z,7.93
2018-09-13T06:56:53.013Z,8.53
2018-09-13T06:58:58.714Z,7.83
2018-09-13T07:01:04.244Z,8.20
2018-09-13T07:03:09.664Z,8.07
2018-09-13T07:05:14.896Z,7.83
2018-09-13T07:07:20.394Z,8.60
2018-09-13T07:09:25.671Z,8.57
2018-09-13T07:11:31.297Z,8.40
2018-09-13T07:13:36.468Z,8.40
2018-09-13T07:15:41.874Z,7.70
2018-09-13T07:17:47.020Z,8.17
2018-09-13T07:19:52.948Z,8.27
2018-09-13T07:21:57.978Z,8.40
2018-09-13T07:24:03.295Z,8.33
2018-09-13T07:26:08.540Z,8.47
2018-09-13T07:28:13.791Z,8.27
2018-09-13T07:30:19.116Z,8.17
2018-09-13T07:32:24.576Z,8.40
2018-09-13T07:34:29.835Z,9.77
2018-09-13T07:36:35.159Z,8.13
2018-09-13T07:38:40.527Z,7.17
2018-09-13T07:40:45.639Z,7.67
2018-09-13T07:42:50.723Z,8.50
2018-09-13T07:45:04.374Z,7.83
2018-09-13T07:47:10.686Z,8.67
2018-09-13T07:49:16.256Z,7.97
2018-09-13T07:51:22.037Z,7.60
2018-09-13T07:53:27.182Z,7.90
2018-09-13T07:55:32.382Z,8.40
2018-09-13T07:57:37.392Z,9.33
2018-09-13T07:59:42.616Z,8.50
2018-09-13T08:01:47.866Z,8.70
2018-09-13T08:03:53.180Z,7.97
2018-09-13T08:05:58.345Z,8.03
2018-09-13T08:08:03.852Z,8.20
2018-09-13T08:10:08.846Z,8.40
2018-09-13T08:12:14.404Z,8.30
2018-09-13T08:14:19.419Z,7.97
2018-09-13T08:16:24.744Z,7.57
2018-09-13T08:18:29.737Z,8.17
2018-09-13T08:20:34.767Z,8.63
2018-09-13T08:22:39.747Z,8.07
2018-09-13T08:24:44.729Z,9.00
2018-09-13T08:26:49.738Z,8.30
2018-09-13T08:28:55.271Z,7.47
2018-09-13T08:31:00.423Z,8.40
2018-09-13T08:33:05.779Z,8.60
2018-09-13T08:35:11.022Z,8.90
2018-09-13T08:37:16.342Z,8.50
2018-09-13T08:39:21.626Z,8.83
2018-09-13T08:41:26.849Z,7.80
2018-09-13T08:43:32.453Z,8.87
2018-09-13T08:45:37.601Z,9.53
2018-09-13T08:47:42.687Z,8.57
2018-09-13T08:49:48.192Z,9.60
2018-09-13T08:51:53.411Z,8.80
2018-09-13T08:53:58.566Z,9.10
2018-09-13T08:56:03.599Z,9.10
2018-09-13T08:58:08.713Z,8.63
2018-09-13T09:00:15.199Z,8.70
2018-09-13T09:02:20.710Z,9.50
2018-09-13T09:04:26.122Z,8.73
2018-09-13T09:06:31.313Z,8.40
2018-09-13T09:08:36.786Z,8.50
2018-09-13T09:10:44.349Z,8.60
2018-09-13T09:12:49.692Z,9.20
2018-09-13T09:14:55.453Z,9.10
2018-09-13T09:17:00.664Z,9.50
2018-09-13T09:19:06.063Z,8.07
2018-09-13T09:21:11.146Z,8.70
2018-09-13T09:23:16.225Z,9.30
2018-09-13T09:25:21.501Z,8.93
2018-09-13T09:27:26.863Z,9.07
2018-09-13T09:29:32.008Z,9.30
2018-09-13T09:31:37.504Z,8.50
2018-09-13T09:33:42.859Z,9.10
2018-09-13T09:35:48.216Z,9.17
2018-09-13T09:37:53.424Z,7.77
2018-09-13T09:39:58.896Z,7.40
2018-09-13T09:42:04.417Z,8.40
2018-09-13T09:44:09.824Z,8.63
2018-09-13T09:46:15.307Z,8.10
2018-09-13T09:48:20.762Z,9.37
2018-09-13T09:50:25.869Z,9.00
2018-09-13T09:52:31.331Z,10.60
2018-09-13T09:54:36.667Z,11.37
2018-09-13T09:56:41.795Z,9.63
2018-09-13T09:58:47.145Z,9.10
2018-09-13T10:00:56.599Z,9.93
2018-09-13T10:03:02.064Z,8.73
2018-09-13T10:05:07.700Z,8.00
2018-09-13T10:07:13.359Z,7.63
2018-09-13T10:09:18.555Z,6.87
2018-09-13T10:11:23.765Z,6.97
2018-09-13T10:13:29.023Z,5.77
2018-09-13T10:15:38.426Z,5.97
2018-09-13T10:17:48.070Z,6.07
2018-09-13T10:19:57.411Z,6.13
2018-09-13T10:22:06.617Z,6.03
2018-09-13T10:24:15.866Z,5.47
2018-09-13T10:26:25.471Z,4.90
2018-09-13T10:28:34.570Z,4.43
2018-09-13T10:30:44.017Z,4.40
2018-09-13T10:32:53.512Z,4.87
2018-09-13T10:35:02.826Z,5.20
2018-09-13T10:37:12.276Z,5.13
2018-09-13T10:39:21.607Z,4.37
2018-09-13T10:41:31.025Z,4.30
2018-09-13T10:43:40.423Z,3.30
2018-09-13T10:45:49.825Z,3.70
2018-09-13T10:47:59.601Z,3.93
2018-09-13T10:50:09.129Z,3.90
2018-09-13T10:52:23.681Z,4.00
2018-09-13T10:54:44.392Z,3.50
2018-09-13T10:56:49.890Z,3.70
2018-09-13T10:58:55.098Z,3.87
2018-09-13T11:01:00.519Z,3.60
2018-09-13T11:03:06.788Z,3.50
2018-09-13T11:05:12.672Z,3.60
2018-09-13T11:07:18.868Z,4.00
2018-09-13T11:09:23.999Z,4.57
2018-09-13T11:11:29.348Z,5.13
2018-09-13T11:13:39.145Z,4.30
2018-09-13T11:15:44.671Z,5.33
2018-09-13T11:17:49.983Z,5.07
2018-09-13T11:19:55.816Z,5.20
2018-09-13T11:22:01.522Z,4.63
2018-09-13T11:24:07.111Z,6.00
2018-09-13T11:26:12.796Z,4.80
2018-09-13T11:28:18.226Z,5.70
2018-09-13T11:30:23.450Z,5.20
2018-09-13T11:32:29.093Z,4.57
2018-09-13T11:34:34.438Z,4.47
2018-09-13T11:36:40.335Z,8.40
2018-09-13T11:38:45.881Z,7.53
2018-09-13T11:40:51.111Z,10.10
2018-09-13T11:42:56.411Z,11.50
2018-09-13T11:45:01.728Z,15.53
2018-09-13T11:47:06.976Z,15.67
2018-09-13T11:49:12.085Z,16.20
2018-09-13T11:51:17.270Z,15.73
2018-09-13T11:53:22.792Z,16.17
2018-09-13T11:55:28.194Z,17.03
2018-09-13T11:57:33.440Z,17.70
2018-09-13T11:59:38.818Z,17.50
2018-09-13T12:01:44.250Z,18.00
2018-09-13T12:03:50.250Z,18.60
2018-09-13T12:05:55.491Z,17.17
2018-09-13T12:08:01.117Z,17.00
2018-09-13T12:10:07.073Z,17.40
2018-09-13T12:12:12.631Z,18.10
2018-09-13T12:14:18.044Z,16.80
2018-09-13T12:16:23.571Z,16.23
2018-09-13T12:18:29.006Z,15.90
2018-09-13T12:20:34.568Z,15.93
2018-09-13T12:22:40.373Z,16.83
2018-09-13T12:24:46.230Z,16.17
2018-09-13T12:26:51.700Z,15.97
2018-09-13T12:28:56.864Z,16.07
2018-09-13T12:31:02.298Z,14.73
2018-09-13T12:33:07.461Z,15.17
2018-09-13T12:35:12.451Z,15.93
2018-09-13T12:37:17.485Z,16.53
2018-09-13T12:39:22.764Z,14.90
2018-09-13T12:41:28.539Z,15.13
2018-09-13T12:43:33.660Z,15.10
2018-09-13T12:45:39.045Z,16.03
2018-09-13T12:47:44.554Z,15.73
2018-09-13T12:49:49.230Z,15.33
2018-09-13T12:51:55.035Z,17.90
2018-09-13T12:54:00.370Z,17.00
2018-09-13T12:56:05.727Z,14.53
2018-09-13T12:58:11.586Z,15.80
2018-09-13T13:00:17.256Z,14.20
2018-09-13T13:02:22.667Z,14.73
2018-09-13T13:04:27.845Z,15.97
2018-09-13T13:06:33.508Z,13.83
2018-09-13T13:08:38.974Z,14.90
2018-09-13T13:10:44.419Z,14.60
2018-09-13T13:12:50.106Z,13.07
2018-09-13T13:14:55.833Z,15.47
2018-09-13T13:17:01.090Z,14.83
2018-09-13T13:19:06.966Z,15.27
2018-09-13T13:21:12.047Z,13.57
2018-09-13T13:23:17.484Z,17.53
2018-09-13T13:25:22.813Z,24.10
2018-09-13T13:27:28.505Z,27.73
2018-09-13T13:29:33.961Z,26.47
2018-09-13T13:31:39.753Z,24.00
2018-09-13T13:33:44.903Z,24.90
2018-09-13T13:35:49.853Z,23.10
2018-09-13T13:37:55.344Z,24.97
2018-09-13T13:40:02.019Z,27.33
2018-09-13T13:42:07.248Z,24.70
2018-09-13T13:44:12.751Z,25.30
2018-09-13T13:46:18.516Z,20.90
2018-09-13T13:48:24.019Z,18.03
2018-09-13T13:50:30.167Z,14.63
2018-09-13T13:52:35.423Z,12.03
2018-09-13T13:54:41.733Z,10.70
2018-09-13T13:56:46.877Z,9.40
2018-09-13T13:58:52.082Z,9.00
2018-09-13T14:00:57.225Z,7.70
2018-09-13T14:03:02.497Z,7.47
2018-09-13T14:05:07.177Z,6.20
2018-09-13T14:07:11.962Z,6.00
2018-09-13T14:09:16.957Z,5.70
2018-09-13T14:11:22.612Z,4.90
2018-09-13T14:13:28.249Z,4.70
2018-09-13T14:15:33.774Z,4.57
2018-09-13T14:17:39.605Z,4.63
2018-09-13T14:19:44.754Z,4.13
2018-09-13T14:21:51.137Z,3.50
2018-09-13T14:23:56.610Z,3.67
2018-09-13T14:26:02.174Z,3.87
2018-09-13T14:28:07.587Z,4.20
2018-09-13T14:30:12.937Z,3.33
2018-09-13T14:32:18.270Z,3.20
2018-09-13T14:34:23.741Z,3.67
2018-09-13T14:36:28.838Z,2.63
2018-09-13T14:38:34.436Z,3.43
2018-09-13T14:40:39.955Z,2.90
2018-09-13T14:42:45.331Z,3.77
2018-09-13T14:44:50.519Z,3.20
2018-09-13T14:46:55.449Z,2.93
2018-09-13T14:49:02.140Z,3.33
2018-09-13T14:51:07.300Z,2.33
2018-09-13T14:53:12.735Z,2.87
2018-09-13T14:55:18.151Z,2.70
2018-09-13T14:57:24.152Z,2.43
2018-09-13T14:59:29.588Z,2.60
2018-09-13T15:01:36.179Z,2.80
2018-09-13T15:03:41.752Z,3.40
2018-09-13T15:05:47.068Z,2.27
2018-09-13T15:07:52.693Z,2.30
2018-09-13T15:09:58.232Z,2.60
2018-09-13T15:12:03.551Z,2.40
2018-09-13T15:14:08.588Z,2.93
2018-09-13T15:16:13.903Z,1.97
2018-09-13T15:18:19.580Z,2.10
2018-09-13T15:20:24.838Z,2.17
2018-09-13T15:22:30.399Z,2.33
2018-09-13T15:24:35.693Z,2.43
2018-09-13T15:26:41.332Z,2.03
2018-09-13T15:28:47.313Z,2.37
2018-09-13T15:30:52.871Z,2.40
2018-09-13T15:32:58.584Z,2.17
2018-09-13T15:35:04.447Z,1.80
2018-09-13T15:37:10.322Z,2.00
2018-09-13T15:39:16.223Z,1.87
2018-09-13T15:41:21.914Z,2.40
2018-09-13T15:43:27.614Z,1.87
2018-09-13T15:45:34.342Z,1.47
2018-09-13T15:47:39.782Z,2.10
2018-09-13T15:49:45.385Z,3.27
2018-09-13T15:51:50.942Z,2.67
2018-09-13T15:53:56.108Z,2.80
2018-09-13T15:56:01.360Z,2.73
2018-09-13T15:58:07.081Z,3.80
2018-09-13T16:00:12.934Z,3.03
2018-09-13T16:02:18.476Z,3.77
2018-09-13T16:04:23.883Z,4.00
2018-09-13T16:06:29.125Z,3.77
2018-09-13T16:08:34.388Z,4.53
2018-09-13T16:10:40.340Z,4.30
2018-09-13T16:12:46.990Z,5.80
2018-09-13T16:14:52.378Z,6.47
2018-09-13T16:16:57.834Z,5.40
2018-09-13T16:19:03.866Z,4.73
2018-09-13T16:21:09.846Z,5.50
2018-09-13T16:23:15.837Z,5.83
2018-09-13T16:25:21.510Z,5.93
2018-09-13T16:27:26.580Z,5.60
2018-09-13T16:29:31.966Z,6.40
2018-09-13T16:31:37.691Z,6.40
2018-09-13T16:33:43.181Z,5.20
2018-09-13T16:35:50.334Z,6.57
2018-09-13T16:37:59.500Z,6.00
2018-09-13T16:41:11.102Z,6.67
2018-09-13T16:43:17.887Z,6.87
2018-09-13T16:45:23.935Z,6.07
2018-09-13T16:47:33.483Z,6.53
2018-09-13T16:49:39.309Z,5.70
2018-09-13T16:51:44.059Z,6.00
2018-09-13T16:53:49.182Z,5.50
2018-09-13T16:55:54.209Z,6.33
2018-09-13T16:57:59.727Z,6.60
2018-09-13T17:00:05.162Z,5.63
2018-09-13T17:02:10.342Z,6.00
2018-09-13T17:04:15.507Z,6.40
2018-09-13T17:06:27.478Z,5.77
2018-09-13T17:08:34.361Z,5.97
2018-09-13T17:10:39.726Z,5.30
2018-09-13T17:12:45.286Z,6.03
2018-09-13T17:14:50.807Z,6.17
2018-09-13T17:16:56.722Z,5.97
2018-09-13T17:19:01.813Z,6.20
2018-09-13T17:21:07.582Z,4.90
2018-09-13T17:23:12.736Z,5.97
2018-09-13T17:25:18.220Z,6.67
2018-09-13T17:27:23.644Z,6.20
2018-09-13T17:29:29.142Z,6.10
2018-09-13T17:31:34.560Z,6.40
2018-09-13T17:33:39.996Z,6.83
2018-09-13T17:35:45.599Z,6.63
2018-09-13T17:40:37.028Z,7.57
2018-09-13T17:42:42.600Z,7.70
2018-09-13T17:44:48.099Z,9.43
2018-09-13T17:46:53.819Z,9.87
2018-09-13T17:48:58.890Z,10.73
2018-09-13T17:51:04.178Z,8.70
2018-09-13T17:53:09.567Z,9.50
2018-09-13T17:55:16.165Z,9.57
2018-09-13T17:57:21.474Z,9.13
2018-09-13T17:59:27.322Z,8.03
2018-09-13T18:01:32.729Z,8.67
2018-09-13T18:03:38.242Z,8.33
2018-09-13T18:05:43.787Z,8.70
2018-09-13T18:07:49.221Z,8.27
2018-09-13T18:09:54.249Z,8.30
2018-09-13T18:11:59.551Z,10.00
2018-09-13T18:14:04.784Z,8.70
2018-09-13T18:16:10.423Z,9.83
2018-09-13T18:18:16.510Z,9.73
2018-09-13T18:20:22.280Z,9.23
2018-09-13T18:22:27.865Z,9.03
2018-09-13T18:24:34.615Z,8.63
2018-09-13T18:26:39.937Z,8.27
2018-09-13T18:28:45.405Z,9.17
2018-09-13T18:30:50.798Z,9.30
2018-09-13T18:32:57.156Z,8.77
2018-09-13T18:35:02.485Z,9.23
2018-09-13T18:37:07.671Z,10.33
2018-09-13T18:39:14.632Z,9.20
2018-09-13T18:41:19.883Z,9.10
2018-09-13T18:43:25.226Z,8.93
2018-09-13T18:45:30.947Z,9.07
2018-09-13T18:47:36.547Z,10.37
2018-09-13T18:49:42.089Z,10.10
2018-09-13T18:51:47.924Z,9.33
2018-09-13T18:53:54.607Z,9.03
2018-09-13T18:55:59.892Z,10.27
2018-09-13T18:58:05.148Z,9.63
2018-09-13T19:00:11.400Z,8.90
2018-09-13T19:02:16.948Z,10.63
2018-09-13T19:04:22.232Z,8.80
2018-09-13T19:06:27.548Z,9.73
2018-09-13T19:08:33.582Z,9.20
2018-09-13T19:10:39.059Z,8.63
2018-09-13T19:12:44.409Z,8.80
2018-09-13T19:14:50.544Z,9.00
2018-09-13T19:16:56.463Z,9.37
2018-09-13T19:19:01.639Z,9.00
2018-09-13T19:21:06.930Z,9.10
2018-09-13T19:23:12.487Z,7.80
2018-09-13T19:25:18.058Z,9.20
2018-09-13T19:27:23.415Z,7.80
2018-09-13T19:29:31.564Z,10.00
2018-09-13T19:31:36.801Z,8.80
2018-09-13T19:33:42.325Z,9.10
2018-09-13T19:35:47.873Z,9.67
2018-09-13T19:37:53.630Z,11.00
2018-09-13T19:39:59.572Z,9.80
2018-09-13T19:42:05.390Z,10.47
2018-09-13T19:44:10.872Z,10.10
2018-09-13T19:46:16.043Z,11.70
2018-09-13T19:48:21.368Z,10.40
2018-09-13T19:50:26.928Z,10.67
2018-09-13T19:52:32.284Z,10.67
2018-09-13T19:54:37.558Z,10.47
2018-09-13T19:56:42.800Z,10.70
2018-09-13T19:58:48.669Z,12.07
2018-09-13T20:00:53.982Z,11.10
2018-09-13T20:02:59.101Z,10.07
2018-09-13T20:05:04.718Z,10.57
2018-09-13T20:07:10.881Z,10.13
2018-09-13T20:09:16.341Z,10.30
2018-09-13T20:11:22.875Z,10.03
2018-09-13T20:13:27.956Z,10.60
2018-09-13T20:15:33.484Z,10.50
2018-09-13T20:17:38.936Z,9.70
2018-09-13T20:19:47.692Z,9.40
2018-09-13T20:21:54.407Z,9.60
2018-09-13T20:23:59.691Z,9.77
2018-09-13T20:26:05.094Z,9.43
2018-09-13T20:28:11.464Z,8.97
2018-09-13T20:30:17.633Z,8.90
2018-09-13T20:32:22.956Z,8.90
2018-09-13T20:34:28.045Z,8.33
2018-09-13T20:36:33.471Z,9.00
2018-09-13T20:38:38.699Z,9.23
2018-09-13T20:40:44.205Z,9.57
2018-09-13T20:42:50.303Z,9.37
2018-09-13T20:44:55.792Z,8.93
2018-09-13T20:47:00.965Z,9.30
2018-09-13T20:49:06.155Z,9.13
2018-09-13T20:51:11.652Z,9.70
2018-09-13T20:53:17.459Z,8.80
2018-09-13T20:55:22.613Z,9.07
2018-09-13T20:57:28.627Z,8.70
2018-09-13T20:59:34.560Z,8.77
2018-09-13T21:01:39.869Z,8.70
2018-09-13T21:03:45.062Z,9.10
2018-09-13T21:05:50.612Z,9.23
2018-09-13T21:07:56.298Z,7.80
2018-09-13T21:10:01.493Z,8.10
2018-09-13T21:12:07.022Z,8.87
2018-09-13T21:14:12.374Z,7.93
2018-09-13T21:16:19.056Z,8.10
2018-09-13T21:18:24.284Z,7.50
2018-09-13T21:20:29.864Z,8.20
2018-09-13T21:22:35.479Z,7.90
2018-09-13T21:24:40.789Z,7.60
2018-09-13T21:26:46.421Z,8.50
2018-09-13T21:28:52.167Z,8.87
2018-09-13T21:30:57.552Z,8.13
2018-09-13T21:33:03.018Z,7.10
2018-09-13T21:35:08.270Z,7.20
2018-09-13T21:37:13.581Z,7.90
2018-09-13T21:39:19.869Z,6.53
2018-09-13T21:41:25.247Z,7.50
2018-09-13T21:43:31.004Z,6.80
2018-09-13T21:45:36.360Z,8.43
2018-09-13T21:47:41.880Z,8.10
2018-09-13T21:49:47.511Z,8.00
2018-09-13T21:51:53.109Z,8.27
2018-09-13T21:53:58.556Z,8.40
2018-09-13T21:56:04.046Z,8.40
2018-09-13T21:58:09.312Z,8.13
2018-09-13T22:00:15.682Z,8.70
2018-09-13T22:02:21.394Z,8.63
2018-09-13T22:04:26.863Z,12.00
2018-09-13T22:06:32.278Z,19.25
2018-09-13T22:08:37.671Z,12.73
2018-09-13T22:10:43.146Z,53.57
2018-09-13T22:12:48.535Z,23.53
2018-09-13T22:14:54.104Z,22.30
2018-09-13T22:16:59.374Z,65.97
2018-09-13T22:19:04.653Z,28.30
2018-09-13T22:21:09.770Z,27.93
2018-09-13T22:23:15.244Z,29.77
2018-09-13T22:25:20.453Z,25.43
2018-09-13T22:27:26.131Z,27.23
2018-09-13T22:29:33.003Z,26.67
2018-09-13T22:31:38.717Z,26.43
2018-09-13T22:33:44.284Z,26.70
2018-09-13T22:35:49.759Z,25.50
2018-09-13T22:37:55.029Z,23.33
2018-09-13T22:40:00.080Z,21.60
2018-09-13T22:42:05.899Z,13.90
2018-09-13T22:44:11.349Z,14.87
2018-09-13T22:46:16.932Z,16.67
2018-09-13T22:48:22.341Z,15.60
2018-09-13T22:50:27.433Z,16.40
2018-09-13T22:52:32.880Z,15.80
2018-09-13T22:54:39.597Z,17.43
2018-09-13T22:56:45.343Z,16.60
2018-09-13T22:58:50.758Z,14.87
2018-09-13T23:01:00.499Z,45.90
2018-09-13T23:03:05.973Z,127.77
2018-09-13T23:05:11.208Z,55.50
2018-09-13T23:07:16.762Z,53.00
2018-09-13T23:09:22.663Z,45.20
2018-09-13T23:11:28.746Z,43.90
2018-09-13T23:13:34.744Z,39.93
2018-09-13T23:15:40.366Z,40.73
2018-09-13T23:17:46.082Z,42.87
2018-09-13T23:19:51.658Z,45.87
2018-09-13T23:21:57.388Z,42.27
2018-09-13T23:24:03.779Z,44.10
2018-09-13T23:26:09.350Z,46.13
2018-09-13T23:28:14.617Z,44.00
2018-09-13T23:30:20.099Z,45.50
2018-09-13T23:32:25.413Z,34.33
2018-09-13T23:34:31.060Z,31.57
2018-09-13T23:36:36.762Z,24.27
2018-09-13T23:38:42.076Z,22.10
2018-09-13T23:40:48.390Z,19.90
2018-09-13T23:42:54.128Z,16.63
2018-09-13T23:45:02.447Z,16.27
2018-09-13T23:47:07.850Z,14.40
2018-09-13T23:49:13.242Z,13.53
2018-09-13T23:51:18.685Z,11.47
2018-09-13T23:53:23.950Z,12.60
2018-09-13T23:55:29.375Z,11.13
2018-09-13T23:57:34.600Z,9.27
2018-09-13T23:59:40.393Z,9.70
